Time;durP1;ratioP1;P1;durP2;ratioP2;P2;SDS_P1;SDS_P2;PMS_P1;PMS_P2;Temp;Humidity;BMP_temperature;BMP_pressure;BME280_temperature;BME280_humidity;BME280_pressure;Samples;Min_cycle;Max_cycle;Signal;HPM_P1;HPM_P2
2022/11/21 00:01:00;;;;;;;22.95;15.30;;;2.80;99.90;;;;;;5113602;28;20043;-71
2022/11/21 00:03:26;;;;;;;23.30;15.68;;;2.80;99.90;;;;;;5113373;28;20492;-71
2022/11/21 00:05:52;;;;;;;21.98;15.23;;;2.80;99.90;;;;;;5113350;28;20048;-71
2022/11/21 00:08:19;;;;;;;21.52;15.63;;;2.80;99.90;;;;;;5113416;28;20039;-71
2022/11/21 00:10:45;;;;;;;24.38;16.13;;;2.80;99.90;;;;;;5113293;28;20040;-71
2022/11/21 00:13:19;;;;;;;22.70;15.55;;;2.80;99.90;;;;;;5113210;28;20067;-71
2022/11/21 00:15:45;;;;;;;23.70;15.27;;;2.80;99.90;;;;;;5114558;28;20130;-71
2022/11/21 00:18:12;;;;;;;22.95;16.30;;;2.80;99.90;;;;;;5113100;28;20043;-71
2022/11/21 00:20:38;;;;;;;24.17;15.90;;;2.80;99.90;;;;;;5112963;28;20064;-71
2022/11/21 00:23:04;;;;;;;26.27;16.27;;;2.80;99.90;;;;;;5113040;28;20403;-72
2022/11/21 00:25:31;;;;;;;21.70;15.05;;;2.80;99.90;;;;;;5113232;28;20035;-72
2022/11/21 00:27:56;;;;;;;22.33;15.73;;;2.80;99.90;;;;;;5113139;28;20047;-72
2022/11/21 00:30:22;;;;;;;22.08;15.95;;;2.80;99.90;;;;;;5113174;28;20040;-72
2022/11/21 00:32:47;;;;;;;22.27;15.27;;;2.70;99.90;;;;;;5113126;28;20484;-72
2022/11/21 00:35:13;;;;;;;21.17;16.20;;;2.70;99.90;;;;;;5113420;28;20515;-72
2022/11/21 00:37:38;;;;;;;23.30;15.52;;;2.70;99.90;;;;;;5112814;28;20515;-72
2022/11/21 00:40:05;;;;;;;21.45;15.70;;;2.70;99.90;;;;;;5112709;28;20046;-72
2022/11/21 00:42:31;;;;;;;22.30;15.60;;;2.70;99.90;;;;;;5112566;28;20043;-72
2022/11/21 00:44:56;;;;;;;22.77;16.38;;;2.70;99.90;;;;;;5112663;28;20031;-72
2022/11/21 00:47:22;;;;;;;22.27;15.40;;;2.70;99.90;;;;;;5112607;28;20059;-72
2022/11/21 00:49:47;;;;;;;19.38;14.52;;;2.60;99.90;;;;;;5112617;28;20050;-72
2022/11/21 00:52:13;;;;;;;20.23;14.88;;;2.70;99.90;;;;;;5112495;28;20075;-72
2022/11/21 00:54:39;;;;;;;21.50;16.17;;;2.70;99.90;;;;;;5112613;28;20071;-72
2022/11/21 00:57:04;;;;;;;22.02;15.75;;;2.70;99.90;;;;;;5112531;28;20075;-72
2022/11/21 00:59:30;;;;;;;22.50;15.68;;;2.70;99.90;;;;;;5112757;28;20040;-72
2022/11/21 01:01:55;;;;;;;21.85;15.63;;;2.70;99.90;;;;;;5095437;28;20531;-72
2022/11/21 01:04:21;;;;;;;22.73;15.65;;;2.60;99.90;;;;;;5112399;28;20050;-72
2022/11/21 01:06:47;;;;;;;19.02;15.13;;;2.60;99.90;;;;;;5112455;28;20070;-72
2022/11/21 01:09:12;;;;;;;21.15;15.52;;;2.70;99.90;;;;;;5112602;28;20084;-72
2022/11/21 01:11:38;;;;;;;21.02;14.85;;;2.70;99.90;;;;;;5112266;28;20374;-69
2022/11/21 01:14:03;;;;;;;21.65;15.82;;;2.70;99.90;;;;;;5112623;28;20170;-69
2022/11/21 01:16:29;;;;;;;21.33;15.30;;;2.70;99.90;;;;;;5112300;28;20452;-69
2022/11/21 01:18:56;;;;;;;21.10;16.50;;;2.70;99.90;;;;;;5112271;28;20040;-69
2022/11/21 01:21:30;;;;;;;22.58;15.23;;;2.70;99.90;;;;;;5112277;28;20043;-69
2022/11/21 01:23:58;;;;;;;19.45;15.30;;;2.70;99.90;;;;;;5113732;28;20047;-69
2022/11/21 01:26:26;;;;;;;21.70;16.02;;;2.70;99.90;;;;;;5112161;28;20060;-69
2022/11/21 01:28:52;;;;;;;24.55;16.33;;;2.60;99.90;;;;;;5112489;28;20055;-69
2022/11/21 01:31:20;;;;;;;21.08;15.98;;;2.60;99.90;;;;;;5113733;28;20031;-69
2022/11/21 01:33:46;;;;;;;19.80;14.80;;;2.60;99.90;;;;;;5116346;28;20116;-69
2022/11/21 01:36:13;;;;;;;24.33;16.25;;;2.60;99.90;;;;;;5116637;28;20403;-69
2022/11/21 01:38:41;;;;;;;20.55;15.65;;;2.60;99.90;;;;;;5116593;28;20051;-69
2022/11/21 01:41:07;;;;;;;23.52;15.85;;;2.50;99.90;;;;;;5116220;28;20050;-69
2022/11/21 01:43:33;;;;;;;21.83;14.60;;;2.50;99.90;;;;;;5116143;28;20127;-69
2022/11/21 01:46:04;;;;;;;21.73;15.40;;;2.50;99.90;;;;;;5116095;28;20119;-69
2022/11/21 01:49:02;;;;;;;22.50;16.17;;;2.50;99.90;;;;;;5116773;28;20035;-69
2022/11/21 01:51:53;;;;;;;21.48;15.40;;;2.50;99.90;;;;;;5116348;28;20121;-69
2022/11/21 01:54:35;;;;;;;20.58;15.52;;;2.50;99.90;;;;;;5116069;28;20042;-69
2022/11/21 01:57:04;;;;;;;21.38;15.80;;;2.50;99.90;;;;;;5115960;28;20039;-69
2022/11/21 01:59:55;;;;;;;19.70;15.23;;;2.50;99.90;;;;;;5115852;28;20059;-69
2022/11/21 02:02:24;;;;;;;25.55;14.65;;;2.50;99.90;;;;;;5115881;28;20047;-69
2022/11/21 02:04:52;;;;;;;20.08;15.13;;;2.50;99.90;;;;;;5116074;28;20050;-69
2022/11/21 02:07:20;;;;;;;20.65;14.95;;;2.50;99.90;;;;;;5115602;28;20408;-69
2022/11/21 02:09:50;;;;;;;19.83;15.27;;;2.50;99.90;;;;;;5115925;28;20442;-69
2022/11/21 02:12:23;;;;;;;21.17;15.13;;;2.60;99.90;;;;;;5115599;28;20062;-69
2022/11/21 02:14:50;;;;;;;22.15;15.57;;;2.50;99.90;;;;;;5115651;28;20061;-69
2022/11/21 02:17:17;;;;;;;21.20;15.65;;;2.50;99.90;;;;;;5115582;28;20051;-69
2022/11/21 02:19:54;;;;;;;23.20;15.45;;;2.50;99.90;;;;;;5115593;28;20043;-69
2022/11/21 02:22:29;;;;;;;19.48;14.95;;;2.40;99.90;;;;;;5115522;28;20539;-69
2022/11/21 02:25:05;;;;;;;21.83;14.82;;;2.30;99.90;;;;;;5115752;28;20108;-69
2022/11/21 02:27:31;;;;;;;22.15;14.77;;;2.30;99.90;;;;;;5115429;28;20039;-69
2022/11/21 02:29:56;;;;;;;21.77;16.15;;;2.20;99.90;;;;;;5115396;28;20568;-69
2022/11/21 02:32:30;;;;;;;21.40;15.70;;;2.20;99.90;;;;;;5115223;28;20036;-69
2022/11/21 02:34:56;;;;;;;21.25;15.18;;;2.10;99.90;;;;;;5115310;28;20050;-69
2022/11/21 02:37:22;;;;;;;20.92;15.77;;;2.10;99.90;;;;;;5115243;28;20122;-69
2022/11/21 02:39:48;;;;;;;21.83;14.88;;;2.00;99.90;;;;;;5116735;28;20050;-69
2022/11/21 02:42:32;;;;;;;23.98;16.00;;;2.00;99.90;;;;;;5116083;28;20075;-69
2022/11/21 02:45:20;;;;;;;19.25;14.73;;;2.00;99.90;;;;;;5115027;28;20050;-69
2022/11/21 02:47:49;;;;;;;24.23;15.73;;;1.90;99.90;;;;;;5114941;28;20058;-69
2022/11/21 02:50:28;;;;;;;21.10;14.73;;;1.80;99.90;;;;;;5114968;28;20039;-69
2022/11/21 02:52:54;;;;;;;20.30;14.50;;;1.80;99.90;;;;;;5114839;28;20118;-69
2022/11/21 02:55:21;;;;;;;21.70;15.45;;;1.70;99.90;;;;;;5115139;28;20114;-69
2022/11/21 02:57:46;;;;;;;19.75;14.85;;;1.70;99.90;;;;;;5114795;28;20101;-69
2022/11/21 03:00:12;;;;;;;22.52;16.33;;;1.70;99.90;;;;;;5114760;28;20035;-69
2022/11/21 03:02:38;;;;;;;23.70;16.08;;;1.60;99.90;;;;;;5114873;28;20091;-69
2022/11/21 03:05:06;;;;;;;21.70;14.95;;;1.60;99.90;;;;;;5114907;28;20502;-69
2022/11/21 03:07:31;;;;;;;21.73;14.57;;;1.60;99.90;;;;;;5114626;28;20075;-69
2022/11/21 03:09:57;;;;;;;22.13;15.75;;;1.60;99.90;;;;;;5115865;28;20400;-69
2022/11/21 03:12:23;;;;;;;19.38;14.50;;;1.50;99.90;;;;;;5114514;28;20047;-69
2022/11/21 03:14:48;;;;;;;21.45;15.27;;;1.50;99.90;;;;;;5114729;28;20177;-69
2022/11/21 03:17:14;;;;;;;24.30;15.38;;;1.50;99.90;;;;;;5114462;28;20563;-69
2022/11/21 03:19:39;;;;;;;21.17;15.27;;;1.50;99.90;;;;;;5114351;28;20039;-69
2022/11/21 03:22:05;;;;;;;21.30;14.88;;;1.40;99.90;;;;;;5114283;28;20043;-69
2022/11/21 03:24:30;;;;;;;22.58;16.63;;;1.40;99.90;;;;;;5114295;28;20043;-69
2022/11/21 03:26:56;;;;;;;20.90;15.18;;;1.40;99.90;;;;;;5114162;28;20048;-69
2022/11/21 03:29:21;;;;;;;20.85;14.93;;;1.40;99.90;;;;;;5114166;28;20119;-69
2022/11/21 03:31:47;;;;;;;20.75;14.40;;;1.30;99.90;;;;;;5114017;28;20084;-69
2022/11/21 03:34:12;;;;;;;22.55;15.57;;;1.30;99.90;;;;;;5114117;28;20039;-69
2022/11/21 03:36:38;;;;;;;19.92;14.50;;;1.30;99.90;;;;;;5115530;28;20036;-69
2022/11/21 03:39:04;;;;;;;19.65;14.85;;;1.20;99.90;;;;;;5114338;28;20048;-69
2022/11/21 03:41:30;;;;;;;20.30;14.82;;;1.20;99.90;;;;;;5113917;28;20043;-69
2022/11/21 03:44:01;;;;;;;21.55;15.02;;;1.20;99.90;;;;;;5113823;28;20051;-69
2022/11/21 03:46:28;;;;;;;21.00;15.52;;;1.10;99.90;;;;;;5113818;28;20043;-69
2022/11/21 03:48:54;;;;;;;24.48;16.58;;;1.10;99.90;;;;;;5114097;28;20042;-69
2022/11/21 03:51:20;;;;;;;23.63;16.13;;;1.00;99.90;;;;;;5114513;28;20459;-69
2022/11/21 03:53:45;;;;;;;21.17;14.63;;;1.00;99.90;;;;;;5113231;28;20115;-69
2022/11/21 03:56:11;;;;;;;24.95;16.38;;;1.00;99.90;;;;;;5113665;28;20552;-69
2022/11/21 03:58:37;;;;;;;23.30;16.38;;;1.00;99.90;;;;;;5113617;28;20047;-69
2022/11/21 04:01:03;;;;;;;23.17;17.13;;;0.90;99.90;;;;;;5113850;28;20126;-69
2022/11/21 04:03:28;;;;;;;23.00;15.98;;;0.90;99.90;;;;;;5113654;28;20399;-69
2022/11/21 04:05:54;;;;;;;22.50;16.25;;;0.90;99.90;;;;;;5114881;28;20046;-69
2022/11/21 04:08:20;;;;;;;27.05;16.80;;;0.90;99.90;;;;;;5113398;28;20081;-69
2022/11/21 04:10:46;;;;;;;24.05;17.40;;;0.80;99.90;;;;;;5113335;28;20092;-69
2022/11/21 04:13:12;;;;;;;23.77;16.42;;;0.80;99.90;;;;;;5113526;28;20076;-69
2022/11/21 04:15:39;;;;;;;22.55;16.05;;;0.80;99.90;;;;;;5113279;28;20405;-69
2022/11/21 04:18:05;;;;;;;22.40;16.13;;;0.80;99.90;;;;;;5113216;28;20100;-69
2022/11/21 04:20:30;;;;;;;23.52;16.52;;;0.80;99.90;;;;;;5113157;28;20122;-69
2022/11/21 04:22:56;;;;;;;20.13;15.02;;;0.80;99.90;;;;;;5113019;28;20043;-69
2022/11/21 04:25:31;;;;;;;22.15;15.63;;;0.80;99.90;;;;;;5113123;28;20043;-69
2022/11/21 04:27:57;;;;;;;21.50;15.63;;;0.80;99.90;;;;;;5096027;28;20046;-69
2022/11/21 04:30:23;;;;;;;22.50;15.70;;;0.80;99.90;;;;;;5113017;28;20043;-69
2022/11/21 04:32:52;;;;;;;20.40;14.82;;;0.80;99.90;;;;;;5113135;28;20058;-69
2022/11/21 04:35:18;;;;;;;22.73;16.33;;;0.90;99.90;;;;;;5113174;28;20035;-69
2022/11/21 04:37:44;;;;;;;21.63;15.68;;;0.80;99.90;;;;;;5113103;28;20047;-69
2022/11/21 04:40:11;;;;;;;21.60;16.00;;;0.90;99.90;;;;;;5112841;28;20046;-69
2022/11/21 04:42:39;;;;;;;25.38;15.30;;;0.80;99.90;;;;;;5112830;28;20043;-69
2022/11/21 04:45:06;;;;;;;23.85;15.95;;;0.80;99.90;;;;;;5112719;28;20432;-69
2022/11/21 04:47:31;;;;;;;23.02;15.75;;;0.80;99.90;;;;;;5112601;28;20054;-69
2022/11/21 04:49:57;;;;;;;22.98;15.85;;;0.80;99.90;;;;;;5112622;28;20035;-69
2022/11/21 04:52:23;;;;;;;23.23;15.70;;;0.70;99.90;;;;;;5113780;28;20039;-69
2022/11/21 04:54:48;;;;;;;22.70;16.20;;;0.70;99.90;;;;;;5112599;28;20042;-69
2022/11/21 04:57:14;;;;;;;22.50;15.55;;;0.70;99.90;;;;;;5112535;28;20097;-69
2022/11/21 04:59:40;;;;;;;23.95;16.00;;;0.60;99.90;;;;;;5112512;28;20115;-69
2022/11/21 05:02:05;;;;;;;21.05;14.73;;;0.60;99.90;;;;;;5112407;28;20049;-69
2022/11/21 05:04:31;;;;;;;24.67;16.42;;;0.60;99.90;;;;;;5112639;28;20092;-69
2022/11/21 05:06:56;;;;;;;20.67;14.63;;;0.60;99.90;;;;;;5111489;28;20500;-69
2022/11/21 05:09:22;;;;;;;21.08;14.40;;;0.60;99.90;;;;;;5112665;28;20042;-70
2022/11/21 05:14:31;;;;;;;23.55;16.50;;;0.60;99.90;;;;;;5112332;28;20491;-70
2022/11/21 05:16:57;;;;;;;21.13;16.02;;;0.50;99.90;;;;;;5112273;28;20067;-69
2022/11/21 05:19:22;;;;;;;23.92;15.60;;;0.50;99.90;;;;;;5112301;28;20036;-69
2022/11/21 05:21:49;;;;;;;24.48;15.45;;;0.40;99.90;;;;;;5112143;28;20040;-69
2022/11/21 05:24:15;;;;;;;22.70;16.35;;;0.40;99.90;;;;;;5112566;28;20051;-69
2022/11/21 05:26:40;;;;;;;23.05;15.82;;;0.40;99.90;;;;;;5112150;28;20602;-69
2022/11/21 05:29:06;;;;;;;23.15;16.52;;;0.30;99.90;;;;;;5113696;28;20108;-69
2022/11/21 05:31:31;;;;;;;23.70;16.05;;;0.30;99.90;;;;;;5112421;28;20040;-69
2022/11/21 05:33:57;;;;;;;24.95;17.33;;;0.30;99.90;;;;;;5095112;28;20537;-69
2022/11/21 05:36:22;;;;;;;23.63;16.20;;;0.20;99.90;;;;;;5112952;28;20120;-69
2022/11/21 05:38:48;;;;;;;27.17;18.00;;;0.30;99.90;;;;;;5112102;28;20122;-69
2022/11/21 05:41:14;;;;;;;25.55;17.05;;;0.30;99.90;;;;;;5112094;28;20047;-69
2022/11/21 05:43:45;;;;;;;29.30;18.17;;;0.30;99.90;;;;;;5111845;28;20089;-69
2022/11/21 05:46:22;;;;;;;27.52;18.55;;;0.30;99.90;;;;;;5112008;28;20063;-69
2022/11/21 05:48:49;;;;;;;27.20;18.05;;;0.30;99.90;;;;;;5112204;28;20427;-69
2022/11/21 05:51:16;;;;;;;25.35;16.90;;;0.30;99.90;;;;;;5112006;28;20042;-69
2022/11/21 05:53:41;;;;;;;24.65;17.95;;;0.20;99.90;;;;;;5112891;28;20039;-69
2022/11/21 05:56:09;;;;;;;26.13;17.58;;;0.30;99.90;;;;;;5111957;28;20047;-69
2022/11/21 05:58:35;;;;;;;29.17;19.00;;;0.20;99.90;;;;;;5111919;28;20119;-69
2022/11/21 06:01:01;;;;;;;30.42;19.02;;;0.30;99.90;;;;;;5111832;28;20130;-69
2022/11/21 06:03:30;;;;;;;26.42;18.35;;;0.30;99.90;;;;;;5113319;28;20047;-69
2022/11/21 06:06:06;;;;;;;30.45;18.23;;;0.40;99.90;;;;;;5112565;28;20381;-69
2022/11/21 06:08:37;;;;;;;32.05;21.42;;;0.40;99.90;;;;;;5113088;28;20460;-70
2022/11/21 06:11:03;;;;;;;29.48;20.92;;;0.40;99.90;;;;;;5111850;28;20034;-70
2022/11/21 06:13:29;;;;;;;27.50;19.45;;;0.40;99.90;;;;;;5111691;28;20515;-69
2022/11/21 06:16:01;;;;;;;28.67;19.58;;;0.40;99.90;;;;;;5111756;28;20039;-69
2022/11/21 06:18:29;;;;;;;28.20;19.80;;;0.40;99.90;;;;;;5114922;28;20039;-69
2022/11/21 06:21:11;;;;;;;29.30;20.15;;;0.40;99.90;;;;;;5115784;28;20071;-70
2022/11/21 06:23:37;;;;;;;29.80;19.80;;;0.40;99.90;;;;;;5115539;28;20168;-70
2022/11/21 06:26:04;;;;;;;28.85;20.13;;;0.40;99.90;;;;;;5115401;28;20068;-70
2022/11/21 06:28:32;;;;;;;29.23;20.17;;;0.40;99.90;;;;;;5115393;28;20039;-70
2022/11/21 06:31:06;;;;;;;32.88;20.52;;;0.50;99.90;;;;;;5115328;28;20438;-70
2022/11/21 06:33:32;;;;;;;29.05;19.77;;;0.50;99.90;;;;;;5115184;28;20039;-70
2022/11/21 06:36:01;;;;;;;29.15;20.15;;;0.40;99.90;;;;;;5115241;28;20048;-70
2022/11/21 06:38:27;;;;;;;31.88;20.08;;;0.40;99.90;;;;;;5115168;28;20047;-69
2022/11/21 06:40:52;;;;;;;28.95;19.50;;;0.50;99.90;;;;;;5115108;28;20047;-69
2022/11/21 06:43:18;;;;;;;34.05;18.63;;;0.50;99.90;;;;;;5114929;28;20043;-69
2022/11/21 06:45:44;;;;;;;25.83;18.42;;;0.50;99.90;;;;;;5115241;28;20043;-69
2022/11/21 06:48:09;;;;;;;28.50;20.05;;;0.50;99.90;;;;;;5114921;28;20047;-69
2022/11/21 06:50:35;;;;;;;29.05;19.15;;;0.50;99.90;;;;;;5116167;28;20519;-69
2022/11/21 06:53:00;;;;;;;26.02;18.85;;;0.50;99.90;;;;;;5114817;28;20039;-69
2022/11/21 06:55:27;;;;;;;27.50;19.88;;;0.50;99.90;;;;;;5114846;28;20047;-69
2022/11/21 06:57:56;;;;;;;29.48;19.08;;;0.50;99.90;;;;;;5114814;28;20557;-69
2022/11/21 07:00:23;;;;;;;31.17;19.52;;;0.50;99.90;;;;;;5116067;28;20039;-69
2022/11/21 07:02:49;;;;;;;25.40;18.65;;;0.50;99.90;;;;;;5114707;28;20070;-69
2022/11/21 07:05:14;;;;;;;28.77;19.52;;;0.50;99.90;;;;;;5114965;28;20071;-69
2022/11/21 07:07:40;;;;;;;29.13;19.83;;;0.60;99.90;;;;;;5114548;28;20058;-69
2022/11/21 07:10:06;;;;;;;32.38;18.75;;;0.50;99.90;;;;;;5114604;28;20127;-69
2022/11/21 07:15:18;;;;;;;29.38;19.05;;;0.40;99.90;;;;;;5116318;28;20487;-70
2022/11/21 07:17:43;;;;;;;29.45;19.65;;;0.40;99.90;;;;;;5114560;28;20071;-70
2022/11/21 07:20:09;;;;;;;27.85;18.80;;;0.40;99.90;;;;;;5114660;28;20047;-70
2022/11/21 07:22:35;;;;;;;28.40;19.02;;;0.40;99.90;;;;;;5114279;28;20457;-70
2022/11/21 07:25:00;;;;;;;28.73;19.67;;;0.40;99.90;;;;;;5114377;28;20047;-70
2022/11/21 07:27:26;;;;;;;26.80;19.33;;;0.40;99.90;;;;;;5114190;28;20050;-70
2022/11/21 07:29:52;;;;;;;27.20;18.80;;;0.40;99.90;;;;;;5114555;28;20036;-70
2022/11/21 07:32:17;;;;;;;29.10;19.45;;;0.40;99.90;;;;;;5114138;28;20036;-69
2022/11/21 07:34:43;;;;;;;32.65;20.95;;;0.40;99.90;;;;;;5114140;28;20040;-69
2022/11/21 07:37:08;;;;;;;28.90;20.23;;;0.50;99.90;;;;;;5114056;28;20415;-69
2022/11/21 07:39:34;;;;;;;30.55;20.42;;;0.40;99.90;;;;;;5114017;28;20173;-69
2022/11/21 07:41:59;;;;;;;28.42;19.05;;;0.40;99.90;;;;;;5114035;28;20054;-69
2022/11/21 07:44:25;;;;;;;29.08;19.70;;;0.40;99.90;;;;;;5113953;28;20518;-69
2022/11/21 07:46:54;;;;;;;25.15;18.70;;;0.40;99.90;;;;;;5113988;28;20043;-69
2022/11/21 07:49:20;;;;;;;30.65;19.80;;;0.50;99.90;;;;;;5113997;28;20040;-69
2022/11/21 07:51:46;;;;;;;26.88;18.05;;;0.40;99.90;;;;;;5113744;28;20046;-69
2022/11/21 07:54:11;;;;;;;31.15;19.10;;;0.50;99.90;;;;;;5113742;28;20044;-70
2022/11/21 07:56:37;;;;;;;29.35;20.10;;;0.50;99.90;;;;;;5113713;28;20036;-69
2022/11/21 07:59:02;;;;;;;28.77;19.20;;;0.50;99.90;;;;;;5113950;28;20065;-69
2022/11/21 08:01:28;;;;;;;28.27;19.77;;;0.50;99.90;;;;;;5113760;28;20036;-69
2022/11/21 08:03:53;;;;;;;27.65;18.98;;;0.50;99.90;;;;;;5113479;28;20067;-69
2022/11/21 08:06:19;;;;;;;28.42;19.60;;;0.50;99.90;;;;;;5113509;28;20040;-70
2022/11/21 08:08:45;;;;;;;27.92;19.10;;;0.50;99.90;;;;;;5114716;28;20040;-70
2022/11/21 08:11:10;;;;;;;24.83;17.23;;;0.60;99.90;;;;;;5113696;28;20057;-69
2022/11/21 08:13:36;;;;;;;26.58;18.58;;;0.60;99.90;;;;;;5113300;28;20515;-70
2022/11/21 08:16:03;;;;;;;26.92;19.02;;;0.60;99.90;;;;;;5113329;28;20061;-70
2022/11/21 08:18:28;;;;;;;30.23;19.95;;;0.60;99.90;;;;;;5113271;28;20046;-69
2022/11/21 08:20:54;;;;;;;28.88;19.50;;;0.70;99.90;;;;;;5113318;28;20043;-69
2022/11/21 08:23:20;;;;;;;28.67;19.40;;;0.80;99.90;;;;;;5113136;28;20055;-69
2022/11/21 08:25:46;;;;;;;30.15;20.27;;;0.80;99.90;;;;;;5113158;28;20054;-69
2022/11/21 08:28:11;;;;;;;26.98;18.50;;;0.90;99.90;;;;;;5113004;28;20168;-69
2022/11/21 08:30:38;;;;;;;29.17;18.48;;;0.90;99.90;;;;;;5112996;28;20044;-69
2022/11/21 08:33:04;;;;;;;27.50;19.27;;;0.90;99.90;;;;;;5113198;28;20047;-69
2022/11/21 08:35:30;;;;;;;30.00;18.95;;;1.00;99.90;;;;;;5112916;28;20416;-69
2022/11/21 08:38:00;;;;;;;28.08;19.77;;;1.10;99.90;;;;;;5112959;28;20047;-69
2022/11/21 08:40:27;;;;;;;26.02;18.15;;;1.10;99.90;;;;;;5112692;28;20541;-69
2022/11/21 08:43:06;;;;;;;26.05;18.67;;;1.20;99.90;;;;;;5112636;28;20049;-69
2022/11/21 08:45:34;;;;;;;27.02;18.92;;;1.30;99.90;;;;;;5113041;28;20035;-69
2022/11/21 08:47:59;;;;;;;23.40;18.00;;;1.30;99.90;;;;;;5112687;28;20538;-70
2022/11/21 08:50:26;;;;;;;30.02;19.92;;;1.50;99.90;;;;;;5112674;28;20070;-70
2022/11/21 08:52:57;;;;;;;25.90;18.70;;;1.60;99.90;;;;;;5095672;28;20114;-70
2022/11/21 08:55:23;;;;;;;27.30;19.10;;;1.70;99.90;;;;;;5112984;28;20040;-70
2022/11/21 08:57:48;;;;;;;24.95;18.77;;;1.80;99.90;;;;;;5112618;28;20515;-70
2022/11/21 09:00:14;;;;;;;28.50;18.20;;;1.90;99.90;;;;;;5112621;28;20043;-70
2022/11/21 09:02:40;;;;;;;27.13;19.38;;;1.90;99.90;;;;;;5112461;28;20511;-70
2022/11/21 09:05:06;;;;;;;24.50;18.52;;;2.00;99.90;;;;;;5113749;28;20031;-70
2022/11/21 09:07:31;;;;;;;30.92;20.98;;;1.90;99.90;;;;;;5112522;28;20040;-70
2022/11/21 09:09:57;;;;;;;27.25;19.30;;;2.00;99.90;;;;;;5112678;28;20060;-70
2022/11/21 09:12:23;;;;;;;28.35;20.15;;;2.00;99.90;;;;;;5112280;28;20032;-70
2022/11/21 09:18:14;;;;;;;28.13;19.17;;;1.90;99.90;;;;;;5112372;28;20079;-69
2022/11/21 09:20:21;;;;;;;29.48;20.00;;;1.90;99.90;;;;;;5101707;28;20043;-69
2022/11/21 09:22:46;;;;;;;27.08;19.27;;;1.90;99.90;;;;;;5112517;28;20052;-69
2022/11/21 09:25:12;;;;;;;29.27;20.33;;;1.90;99.90;;;;;;5112279;28;20488;-69
2022/11/21 09:27:38;;;;;;;28.27;19.65;;;1.90;99.90;;;;;;5112157;28;20050;-69
2022/11/21 09:30:03;;;;;;;29.23;19.30;;;1.80;99.90;;;;;;5112196;28;20071;-69
2022/11/21 09:32:29;;;;;;;26.92;19.52;;;1.90;99.90;;;;;;5112149;28;20092;-69
2022/11/21 09:34:55;;;;;;;27.27;20.05;;;1.90;99.90;;;;;;5112200;28;20036;-69
2022/11/21 09:37:20;;;;;;;27.55;18.80;;;1.90;99.90;;;;;;5112144;28;20123;-69
2022/11/21 09:39:46;;;;;;;27.48;19.58;;;1.90;99.90;;;;;;5112129;28;20078;-69
2022/11/21 09:42:38;;;;;;;25.40;18.38;;;1.90;99.90;;;;;;5112198;28;20071;-69
2022/11/21 09:45:14;;;;;;;28.85;18.88;;;1.90;99.90;;;;;;5113647;28;20119;-69
2022/11/21 09:47:50;;;;;;;27.33;18.08;;;1.90;99.90;;;;;;5112120;28;20403;-69
2022/11/21 09:50:38;;;;;;;27.90;18.52;;;1.90;99.90;;;;;;5112090;28;20050;-69
2022/11/21 09:53:22;;;;;;;25.92;18.48;;;1.90;99.90;;;;;;5115045;28;20040;-70
2022/11/21 09:55:56;;;;;;;26.98;18.63;;;2.00;99.90;;;;;;5116069;28;20040;-69
2022/11/21 09:58:50;;;;;;;33.60;21.65;;;2.00;99.90;;;;;;5116123;28;20044;-69
2022/11/21 10:01:16;;;;;;;30.15;20.60;;;2.10;99.90;;;;;;5116246;28;20045;-69
2022/11/21 10:03:46;;;;;;;29.73;20.92;;;2.00;99.90;;;;;;5116308;28;20044;-69
2022/11/21 10:06:37;;;;;;;27.30;19.08;;;2.10;99.90;;;;;;5116155;28;20102;-69
2022/11/21 10:09:17;;;;;;;30.30;19.60;;;2.10;99.90;;;;;;5102166;28;20051;-69
2022/11/21 10:14:51;;;;;;;25.00;17.30;;;2.20;99.90;;;;;;5115624;28;20047;-69
2022/11/21 10:17:44;;;;;;;24.52;17.55;;;2.20;99.90;;;;;;5115681;28;20092;-69
2022/11/21 10:20:10;;;;;;;22.15;16.05;;;2.20;99.90;;;;;;5115856;28;20050;-70
2022/11/21 10:22:57;;;;;;;22.10;15.77;;;2.20;99.90;;;;;;5115724;28;20048;-69
2022/11/21 10:25:28;;;;;;;21.27;15.80;;;2.30;99.90;;;;;;5115836;28;20054;-69
2022/11/21 10:28:06;;;;;;;21.33;15.35;;;2.30;99.90;;;;;;5115514;28;20500;-69
2022/11/21 10:30:33;;;;;;;20.55;14.98;;;2.30;99.90;;;;;;5115478;28;20039;-69
2022/11/21 10:33:04;;;;;;;22.85;16.38;;;2.40;99.90;;;;;;5115414;28;20044;-69
2022/11/21 10:35:59;;;;;;;21.02;15.40;;;2.50;99.90;;;;;;5115359;28;20055;-70
2022/11/21 10:38:28;;;;;;;22.63;16.10;;;2.60;99.90;;;;;;5110183;28;20100;-69
2022/11/21 10:41:17;;;;;;;21.05;15.70;;;2.70;99.90;;;;;;5116777;28;20035;-70
2022/11/21 10:46:39;;;;;;;20.00;14.93;;;2.90;99.90;;;;;;5115052;28;20063;-70
2022/11/21 10:49:10;;;;;;;22.77;16.10;;;3.00;99.90;;;;;;5115109;28;20039;-69
2022/11/21 10:51:59;;;;;;;24.23;15.57;;;3.20;99.90;;;;;;5115015;28;20051;-69
2022/11/21 10:54:33;;;;;;;19.30;15.15;;;3.30;99.90;;;;;;5115006;28;20547;-70
2022/11/21 10:57:15;;;;;;;20.83;15.23;;;3.30;99.90;;;;;;5116515;27;20044;-70
2022/11/21 10:59:54;;;;;;;19.48;14.65;;;3.40;99.90;;;;;;5114900;28;20047;-69
2022/11/21 11:02:23;;;;;;;18.17;14.02;;;3.40;99.90;;;;;;5115031;28;20035;-69
2022/11/21 11:05:08;;;;;;;20.05;14.73;;;3.50;99.90;;;;;;5115978;28;20039;-69
2022/11/21 11:07:34;;;;;;;18.00;13.90;;;3.60;99.90;;;;;;5115306;28;20083;-69
2022/11/21 11:10:26;;;;;;;17.40;12.95;;;3.80;99.90;;;;;;5114662;28;20519;-69
2022/11/21 11:15:50;;;;;;;18.40;13.85;;;3.80;99.90;;;;;;5116221;28;20484;-69
2022/11/21 11:18:20;;;;;;;17.15;13.50;;;3.80;99.90;;;;;;5114866;28;20040;-69
2022/11/21 11:20:46;;;;;;;17.98;14.15;;;3.70;99.90;;;;;;5114470;28;20456;-69
2022/11/21 11:23:21;;;;;;;17.48;13.75;;;3.80;99.90;;;;;;5115884;28;20078;-69
2022/11/21 11:25:51;;;;;;;17.95;13.02;;;3.80;99.90;;;;;;5114650;28;20055;-69
2022/11/21 11:28:18;;;;;;;18.67;14.30;;;3.80;99.90;;;;;;5114274;28;20508;-69
2022/11/21 11:30:45;;;;;;;19.38;14.32;;;3.80;99.90;;;;;;5114304;28;20043;-69
2022/11/21 11:33:51;;;;;;;17.67;13.82;;;3.80;99.90;;;;;;5114458;28;20442;-70
2022/11/21 11:36:33;;;;;;;18.88;14.43;;;3.80;99.90;;;;;;5016546;28;20091;-70
2022/11/21 11:39:01;;;;;;;19.10;14.30;;;3.80;99.90;;;;;;5108152;28;20527;-70
2022/11/21 11:47:41;;;;;;;18.52;13.80;;;3.90;99.90;;;;;;5113791;28;20075;-70
2022/11/21 11:50:18;;;;;;;17.25;14.13;;;3.80;99.90;;;;;;5113930;28;20423;-70
2022/11/21 11:52:56;;;;;;;18.40;14.45;;;3.80;99.90;;;;;;5113813;28;20084;-69
2022/11/21 11:55:46;;;;;;;18.35;14.32;;;3.80;99.90;;;;;;5113800;28;20047;-69
2022/11/21 11:58:21;;;;;;;19.70;14.23;;;3.80;99.90;;;;;;5114387;28;20048;-69
2022/11/21 12:01:00;;;;;;;20.48;15.23;;;3.80;99.90;;;;;;5113594;28;20039;-69
2022/11/21 12:03:48;;;;;;;20.02;14.85;;;3.80;99.90;;;;;;5097259;28;20043;-69
2022/11/21 12:06:36;;;;;;;20.55;15.35;;;3.90;99.90;;;;;;5113833;28;20549;-69
2022/11/21 12:09:28;;;;;;;20.40;14.50;;;3.90;99.90;;;;;;5113777;28;20044;-69
2022/11/21 12:12:22;;;;;;;21.85;14.90;;;3.90;99.90;;;;;;5097293;28;20527;-69
2022/11/21 12:18:03;;;;;;;22.60;16.20;;;4.00;99.90;;;;;;5113300;28;20052;-69
2022/11/21 12:20:32;;;;;;;22.42;15.70;;;4.00;99.90;;;;;;5113392;28;20123;-69
2022/11/21 12:22:58;;;;;;;22.67;16.17;;;4.00;99.90;;;;;;5113353;28;20043;-69
2022/11/21 12:25:29;;;;;;;20.42;15.35;;;4.00;99.90;;;;;;5114728;28;20408;-69
2022/11/21 12:27:56;;;;;;;22.63;16.02;;;4.10;99.90;;;;;;5113167;28;20043;-69
2022/11/21 12:30:21;;;;;;;22.00;16.30;;;4.10;99.90;;;;;;5113056;28;20050;-69
2022/11/21 12:33:16;;;;;;;21.75;16.40;;;4.20;99.90;;;;;;5112918;28;20475;-69
2022/11/21 12:36:30;;;;;;;22.10;16.40;;;4.20;99.90;;;;;;5091732;28;20055;-69
2022/11/21 12:39:16;;;;;;;22.48;15.82;;;4.30;99.90;;;;;;5015302;28;20040;-69
2022/11/21 12:44:52;;;;;;;20.45;15.07;;;4.30;99.90;;;;;;5092375;28;20052;-69
2022/11/21 12:54:30;;;;;;;19.65;15.00;;;4.30;99.90;;;;;;5112617;28;20044;-69
2022/11/21 12:57:11;;;;;;;20.92;15.38;;;4.20;99.90;;;;;;5112686;28;20043;-69
2022/11/21 12:59:44;;;;;;;21.73;16.58;;;4.20;99.90;;;;;;5114193;28;20028;-69
2022/11/21 13:02:22;;;;;;;;;;;4.20;99.90;;;;;;5113224;28;20039;-70
2022/11/21 13:04:49;;;;;;;22.17;14.70;;;4.20;99.90;;;;;;5114100;28;19919;-69
2022/11/21 13:07:17;;;;;;;20.55;15.25;;;4.20;99.90;;;;;;5112456;28;20051;-69
2022/11/21 13:09:49;;;;;;;21.75;15.63;;;4.20;99.90;;;;;;5112741;28;20043;-69
2022/11/21 13:12:43;;;;;;;21.77;15.70;;;4.20;99.90;;;;;;5112418;28;20385;-69
2022/11/21 13:15:18;;;;;;;19.80;14.88;;;4.20;99.90;;;;;;5101061;28;20087;-69
2022/11/21 13:18:06;;;;;;;21.75;16.25;;;4.20;99.90;;;;;;5112453;28;20055;-69
2022/11/21 13:20:39;;;;;;;23.10;16.27;;;4.20;99.90;;;;;;5094842;28;20504;-69
2022/11/21 13:23:30;;;;;;;20.95;15.65;;;4.20;99.90;;;;;;5112598;28;20119;-69
2022/11/21 13:25:56;;;;;;;21.05;16.20;;;4.20;99.90;;;;;;5111900;28;20090;-69
2022/11/21 13:28:28;;;;;;;21.13;15.90;;;4.20;99.90;;;;;;5111719;28;20071;-69